sensor_id;sensor_type;location;lat;lon;timestamp;pressure;altitude;pressure_sealevel;temperature;humidity
80139;BME280;69467;59.842;17.604;2024-02-14T00:01:00;100803.78;;;-4.23;100.00
80139;BME280;69467;59.842;17.604;2024-02-14T00:03:25;100804.28;;;-4.19;100.00
80139;BME280;69467;59.842;17.604;2024-02-14T00:05:50;100815.00;;;-4.19;100.00
80139;BME280;69467;59.842;17.604;2024-02-14T00:08:17;100810.63;;;-4.28;100.00
80139;BME280;69467;59.842;17.604;2024-02-14T00:10:42;100816.13;;;-4.30;100.00
80139;BME280;69467;59.842;17.604;2024-02-14T00:13:10;100813.91;;;-4.43;100.00
80139;BME280;69467;59.842;17.604;2024-02-14T00:15:35;100826.06;;;-4.57;100.00
80139;BME280;69467;59.842;17.604;2024-02-14T00:18:01;100826.50;;;-4.70;100.00
80139;BME280;69467;59.842;17.604;2024-02-14T00:20:27;100831.94;;;-4.79;100.00
80139;BME280;69467;59.842;17.604;2024-02-14T00:22:52;100836.25;;;-4.87;100.00
80139;BME280;69467;59.842;17.604;2024-02-14T00:25:17;100836.56;;;-4.90;100.00
80139;BME280;69467;59.842;17.604;2024-02-14T00:27:42;100838.72;;;-4.93;100.00
80139;BME280;69467;59.842;17.604;2024-02-14T00:30:08;100848.97;;;-5.07;100.00
80139;BME280;69467;59.842;17.604;2024-02-14T00:32:35;100853.63;;;-5.09;100.00
80139;BME280;69467;59.842;17.604;2024-02-14T00:35:00;100857.97;;;-5.08;100.00
80139;BME280;69467;59.842;17.604;2024-02-14T00:37:26;100857.25;;;-5.18;100.00
80139;BME280;69467;59.842;17.604;2024-02-14T00:39:51;100852.72;;;-5.18;100.00
80139;BME280;69467;59.842;17.604;2024-02-14T00:42:17;100854.13;;;-5.31;100.00
80139;BME280;69467;59.842;17.604;2024-02-14T00:44:42;100865.59;;;-5.39;100.00
80139;BME280;69467;59.842;17.604;2024-02-14T00:47:07;100870.22;;;-5.41;100.00
80139;BME280;69467;59.842;17.604;2024-02-14T00:49:36;100862.38;;;-5.43;100.00
80139;BME280;69467;59.842;17.604;2024-02-14T00:52:01;100856.72;;;-5.40;100.00
80139;BME280;69467;59.842;17.604;2024-02-14T00:54:27;100861.41;;;-5.42;100.00
80139;BME280;69467;59.842;17.604;2024-02-14T00:56:52;100856.06;;;-5.42;100.00
80139;BME280;69467;59.842;17.604;2024-02-14T00:59:18;100856.34;;;-5.45;100.00
80139;BME280;69467;59.842;17.604;2024-02-14T01:01:43;100862.22;;;-5.41;100.00
80139;BME280;69467;59.842;17.604;2024-02-14T01:04:09;100868.09;;;-5.38;100.00
80139;BME280;69467;59.842;17.604;2024-02-14T01:06:35;100870.94;;;-5.39;100.00
80139;BME280;69467;59.842;17.604;2024-02-14T01:09:00;100873.06;;;-5.43;100.00
80139;BME280;69467;59.842;17.604;2024-02-14T01:11:26;100874.06;;;-5.44;100.00
80139;BME280;69467;59.842;17.604;2024-02-14T01:13:51;100865.34;;;-5.46;100.00
80139;BME280;69467;59.842;17.604;2024-02-14T01:16:17;100869.88;;;-5.46;100.00
80139;BME280;69467;59.842;17.604;2024-02-14T01:18:42;100882.34;;;-5.47;100.00
80139;BME280;69467;59.842;17.604;2024-02-14T01:21:07;100874.75;;;-5.60;100.00
80139;BME280;69467;59.842;17.604;2024-02-14T01:23:34;100869.41;;;-5.60;100.00
80139;BME280;69467;59.842;17.604;2024-02-14T01:25:59;100876.13;;;-5.74;100.00
80139;BME280;69467;59.842;17.604;2024-02-14T01:28:24;100875.25;;;-5.74;100.00
80139;BME280;69467;59.842;17.604;2024-02-14T01:30:50;100869.69;;;-5.81;100.00
80139;BME280;69467;59.842;17.604;2024-02-14T01:33:16;100870.91;;;-5.93;100.00
80139;BME280;69467;59.842;17.604;2024-02-14T01:35:41;100871.88;;;-5.94;100.00
80139;BME280;69467;59.842;17.604;2024-02-14T01:38:07;100870.84;;;-6.02;100.00
80139;BME280;69467;59.842;17.604;2024-02-14T01:40:33;100882.97;;;-6.07;100.00
80139;BME280;69467;59.842;17.604;2024-02-14T01:42:58;100872.75;;;-6.12;100.00
80139;BME280;69467;59.842;17.604;2024-02-14T01:45:24;100869.97;;;-6.20;100.00
80139;BME280;69467;59.842;17.604;2024-02-14T01:47:49;100875.31;;;-6.20;100.00
80139;BME280;69467;59.842;17.604;2024-02-14T01:50:16;100879.09;;;-6.23;100.00
80139;BME280;69467;59.842;17.604;2024-02-14T01:52:44;100877.84;;;-6.28;100.00
80139;BME280;69467;59.842;17.604;2024-02-14T01:55:12;100885.84;;;-6.28;100.00
80139;BME280;69467;59.842;17.604;2024-02-14T01:57:38;100893.72;;;-6.27;100.00
80139;BME280;69467;59.842;17.604;2024-02-14T02:00:04;100887.72;;;-6.39;100.00
80139;BME280;69467;59.842;17.604;2024-02-14T02:02:36;100891.09;;;-6.37;100.00
80139;BME280;69467;59.842;17.604;2024-02-14T02:05:03;100889.16;;;-6.44;100.00
80139;BME280;69467;59.842;17.604;2024-02-14T02:07:28;100895.06;;;-6.51;100.00
80139;BME280;69467;59.842;17.604;2024-02-14T02:09:55;100891.72;;;-6.53;100.00
80139;BME280;69467;59.842;17.604;2024-02-14T02:12:21;100899.72;;;-6.53;100.00
80139;BME280;69467;59.842;17.604;2024-02-14T02:14:46;100900.53;;;-6.52;100.00
80139;BME280;69467;59.842;17.604;2024-02-14T02:17:12;100893.97;;;-6.48;100.00
80139;BME280;69467;59.842;17.604;2024-02-14T02:19:37;100896.78;;;-6.59;100.00
80139;BME280;69467;59.842;17.604;2024-02-14T02:22:03;100902.09;;;-6.59;100.00
80139;BME280;69467;59.842;17.604;2024-02-14T02:24:30;100901.25;;;-6.50;100.00
80139;BME280;69467;59.842;17.604;2024-02-14T02:26:55;100905.03;;;-6.53;100.00
80139;BME280;69467;59.842;17.604;2024-02-14T02:29:22;100899.41;;;-6.50;100.00
80139;BME280;69467;59.842;17.604;2024-02-14T02:31:47;100906.00;;;-6.44;100.00
80139;BME280;69467;59.842;17.604;2024-02-14T02:34:12;100908.38;;;-6.51;100.00
80139;BME280;69467;59.842;17.604;2024-02-14T02:36:38;100910.94;;;-6.49;100.00
80139;BME280;69467;59.842;17.604;2024-02-14T02:39:04;100915.66;;;-6.43;100.00
80139;BME280;69467;59.842;17.604;2024-02-14T02:41:33;100915.38;;;-6.40;100.00
80139;BME280;69467;59.842;17.604;2024-02-14T02:43:58;100921.28;;;-6.46;100.00
80139;BME280;69467;59.842;17.604;2024-02-14T02:46:24;100918.22;;;-6.51;100.00
80139;BME280;69467;59.842;17.604;2024-02-14T02:48:51;100921.44;;;-6.48;100.00
80139;BME280;69467;59.842;17.604;2024-02-14T02:51:17;100917.94;;;-6.48;100.00
80139;BME280;69467;59.842;17.604;2024-02-14T02:53:45;100923.78;;;-6.44;100.00
80139;BME280;69467;59.842;17.604;2024-02-14T02:56:10;100920.03;;;-6.42;100.00
80139;BME280;69467;59.842;17.604;2024-02-14T02:58:38;100923.34;;;-6.40;100.00
80139;BME280;69467;59.842;17.604;2024-02-14T03:01:07;100911.72;;;-6.39;100.00
80139;BME280;69467;59.842;17.604;2024-02-14T03:03:33;100931.91;;;-6.36;100.00
80139;BME280;69467;59.842;17.604;2024-02-14T03:05:58;100933.44;;;-6.34;100.00
80139;BME280;69467;59.842;17.604;2024-02-14T03:08:24;100927.81;;;-6.31;100.00
80139;BME280;69467;59.842;17.604;2024-02-14T03:10:51;100934.28;;;-6.33;100.00
80139;BME280;69467;59.842;17.604;2024-02-14T03:13:17;100937.22;;;-6.36;100.00
80139;BME280;69467;59.842;17.604;2024-02-14T03:15:42;100932.06;;;-6.38;100.00
80139;BME280;69467;59.842;17.604;2024-02-14T03:18:09;100939.91;;;-6.36;100.00
80139;BME280;69467;59.842;17.604;2024-02-14T03:20:35;100939.47;;;-6.32;100.00
80139;BME280;69467;59.842;17.604;2024-02-14T03:23:02;100944.78;;;-6.32;100.00
80139;BME280;69467;59.842;17.604;2024-02-14T03:25:29;100951.38;;;-6.26;100.00
80139;BME280;69467;59.842;17.604;2024-02-14T03:27:54;100957.53;;;-6.25;100.00
80139;BME280;69467;59.842;17.604;2024-02-14T03:30:22;100957.81;;;-6.28;100.00
80139;BME280;69467;59.842;17.604;2024-02-14T03:32:48;100957.53;;;-6.25;100.00
80139;BME280;69467;59.842;17.604;2024-02-14T03:35:14;100963.56;;;-6.23;100.00
80139;BME280;69467;59.842;17.604;2024-02-14T03:37:41;100952.91;;;-6.23;100.00
80139;BME280;69467;59.842;17.604;2024-02-14T03:40:07;100964.16;;;-6.29;100.00
80139;BME280;69467;59.842;17.604;2024-02-14T03:42:34;100969.72;;;-6.23;100.00
80139;BME280;69467;59.842;17.604;2024-02-14T03:45:00;100969.47;;;-6.20;100.00
80139;BME280;69467;59.842;17.604;2024-02-14T03:47:31;100984.59;;;-6.20;100.00
80139;BME280;69467;59.842;17.604;2024-02-14T03:49:58;100978.97;;;-6.17;100.00
80139;BME280;69467;59.842;17.604;2024-02-14T03:52:23;100971.00;;;-6.17;100.00
80139;BME280;69467;59.842;17.604;2024-02-14T03:54:49;100980.50;;;-6.15;100.00
80139;BME280;69467;59.842;17.604;2024-02-14T03:57:15;100986.53;;;-6.12;100.00
80139;BME280;69467;59.842;17.604;2024-02-14T03:59:40;100991.56;;;-6.09;100.00
80139;BME280;69467;59.842;17.604;2024-02-14T04:02:06;100988.75;;;-6.08;100.00
80139;BME280;69467;59.842;17.604;2024-02-14T04:04:37;100983.97;;;-6.04;100.00
80139;BME280;69467;59.842;17.604;2024-02-14T04:07:06;100993.81;;;-6.05;100.00
80139;BME280;69467;59.842;17.604;2024-02-14T04:09:33;100993.50;;;-6.02;100.00
80139;BME280;69467;59.842;17.604;2024-02-14T04:11:58;101002.72;;;-5.96;100.00
80139;BME280;69467;59.842;17.604;2024-02-14T04:14:23;101000.88;;;-5.95;100.00
80139;BME280;69467;59.842;17.604;2024-02-14T04:16:49;101007.63;;;-5.91;100.00
80139;BME280;69467;59.842;17.604;2024-02-14T04:19:14;100999.31;;;-5.88;100.00
80139;BME280;69467;59.842;17.604;2024-02-14T04:21:42;100999.47;;;-5.90;100.00
80139;BME280;69467;59.842;17.604;2024-02-14T04:24:08;101009.16;;;-5.89;100.00
80139;BME280;69467;59.842;17.604;2024-02-14T04:26:34;101013.34;;;-5.86;100.00
80139;BME280;69467;59.842;17.604;2024-02-14T04:28:59;101007.88;;;-5.85;100.00
80139;BME280;69467;59.842;17.604;2024-02-14T04:31:25;101010.53;;;-5.85;100.00
80139;BME280;69467;59.842;17.604;2024-02-14T04:33:52;101013.03;;;-5.83;100.00
80139;BME280;69467;59.842;17.604;2024-02-14T04:36:19;101017.25;;;-5.80;100.00
80139;BME280;69467;59.842;17.604;2024-02-14T04:38:46;101015.28;;;-5.78;100.00
80139;BME280;69467;59.842;17.604;2024-02-14T04:41:12;101019.47;;;-5.76;100.00
80139;BME280;69467;59.842;17.604;2024-02-14T04:43:39;101022.84;;;-5.74;100.00
80139;BME280;69467;59.842;17.604;2024-02-14T04:46:05;101026.19;;;-5.72;100.00
80139;BME280;69467;59.842;17.604;2024-02-14T04:48:35;101025.19;;;-5.71;100.00
80139;BME280;69467;59.842;17.604;2024-02-14T04:51:02;101034.88;;;-5.70;100.00
80139;BME280;69467;59.842;17.604;2024-02-14T04:53:28;101031.94;;;-5.67;100.00
80139;BME280;69467;59.842;17.604;2024-02-14T04:55:53;101031.78;;;-5.65;100.00
80139;BME280;69467;59.842;17.604;2024-02-14T04:58:19;101035.00;;;-5.61;100.00
80139;BME280;69467;59.842;17.604;2024-02-14T05:00:44;101036.69;;;-5.60;100.00
80139;BME280;69467;59.842;17.604;2024-02-14T05:03:09;101038.50;;;-5.61;100.00
80139;BME280;69467;59.842;17.604;2024-02-14T05:05:35;101027.13;;;-5.63;100.00
80139;BME280;69467;59.842;17.604;2024-02-14T05:08:01;101042.84;;;-5.60;100.00
80139;BME280;69467;59.842;17.604;2024-02-14T05:10:27;101040.03;;;-5.58;100.00
80139;BME280;69467;59.842;17.604;2024-02-14T05:12:54;101047.34;;;-5.60;100.00
80139;BME280;69467;59.842;17.604;2024-02-14T05:15:19;101049.72;;;-5.57;100.00
80139;BME280;69467;59.842;17.604;2024-02-14T05:17:44;101049.44;;;-5.54;100.00
80139;BME280;69467;59.842;17.604;2024-02-14T05:20:10;101054.63;;;-5.53;100.00
80139;BME280;69467;59.842;17.604;2024-02-14T05:22:37;101058.81;;;-5.50;100.00
80139;BME280;69467;59.842;17.604;2024-02-14T05:25:05;101057.81;;;-5.49;100.00
80139;BME280;69467;59.842;17.604;2024-02-14T05:27:33;101063.84;;;-5.47;100.00
80139;BME280;69467;59.842;17.604;2024-02-14T05:29:58;101065.25;;;-5.43;100.00
80139;BME280;69467;59.842;17.604;2024-02-14T05:32:24;101069.59;;;-5.42;100.00
80139;BME280;69467;59.842;17.604;2024-02-14T05:34:50;101070.25;;;-5.40;100.00
80139;BME280;69467;59.842;17.604;2024-02-14T05:37:16;101074.63;;;-5.39;100.00
80139;BME280;69467;59.842;17.604;2024-02-14T05:39:41;101070.81;;;-5.36;100.00
80139;BME280;69467;59.842;17.604;2024-02-14T05:42:07;101069.00;;;-5.36;100.00
80139;BME280;69467;59.842;17.604;2024-02-14T05:44:33;101075.00;;;-5.34;100.00
80139;BME280;69467;59.842;17.604;2024-02-14T05:46:58;101069.00;;;-5.36;100.00
80139;BME280;69467;59.842;17.604;2024-02-14T05:49:24;101078.88;;;-5.46;100.00
80139;BME280;69467;59.842;17.604;2024-02-14T05:51:50;101075.91;;;-5.43;100.00
80139;BME280;69467;59.842;17.604;2024-02-14T05:54:17;101078.59;;;-5.43;100.00
80139;BME280;69467;59.842;17.604;2024-02-14T05:56:43;101082.78;;;-5.40;100.00
80139;BME280;69467;59.842;17.604;2024-02-14T05:59:09;101082.63;;;-5.39;100.00
80139;BME280;69467;59.842;17.604;2024-02-14T06:01:35;101089.94;;;-5.41;100.00
80139;BME280;69467;59.842;17.604;2024-02-14T06:04:00;101095.97;;;-5.39;100.00
80139;BME280;69467;59.842;17.604;2024-02-14T06:06:26;101094.16;;;-5.38;100.00
80139;BME280;69467;59.842;17.604;2024-02-14T06:08:51;101096.97;;;-5.40;100.00
80139;BME280;69467;59.842;17.604;2024-02-14T06:11:16;101094.88;;;-5.46;100.00
80139;BME280;69467;59.842;17.604;2024-02-14T06:13:42;101094.59;;;-5.43;100.00
80139;BME280;69467;59.842;17.604;2024-02-14T06:16:07;101096.19;;;-5.50;100.00
80139;BME280;69467;59.842;17.604;2024-02-14T06:18:34;101095.88;;;-5.47;100.00
80139;BME280;69467;59.842;17.604;2024-02-14T06:21:00;101094.88;;;-5.46;100.00
80139;BME280;69467;59.842;17.604;2024-02-14T06:23:25;101100.91;;;-5.44;100.00
80139;BME280;69467;59.842;17.604;2024-02-14T06:25:51;101102.75;;;-5.44;100.00
80139;BME280;69467;59.842;17.604;2024-02-14T06:28:16;101099.09;;;-5.43;100.00
80139;BME280;69467;59.842;17.604;2024-02-14T06:30:41;101101.91;;;-5.45;100.00
80139;BME280;69467;59.842;17.604;2024-02-14T06:33:07;101106.66;;;-5.39;100.00
80139;BME280;69467;59.842;17.604;2024-02-14T06:35:32;101104.97;;;-5.40;100.00
80139;BME280;69467;59.842;17.604;2024-02-14T06:37:57;101115.38;;;-5.37;100.00
80139;BME280;69467;59.842;17.604;2024-02-14T06:40:23;101115.22;;;-5.35;100.00
80139;BME280;69467;59.842;17.604;2024-02-14T06:42:48;101105.22;;;-5.33;100.00
80139;BME280;69467;59.842;17.604;2024-02-14T06:45:16;101106.59;;;-5.29;100.00
80139;BME280;69467;59.842;17.604;2024-02-14T06:47:41;101124.84;;;-5.24;100.00
80139;BME280;69467;59.842;17.604;2024-02-14T06:50:07;101121.22;;;-5.23;100.00
80139;BME280;69467;59.842;17.604;2024-02-14T06:52:33;101119.22;;;-5.21;100.00
80139;BME280;69467;59.842;17.604;2024-02-14T06:54:58;101123.81;;;-5.13;100.00
80139;BME280;69467;59.842;17.604;2024-02-14T06:57:25;101118.16;;;-5.10;100.00
80139;BME280;69467;59.842;17.604;2024-02-14T06:59:50;101114.50;;;-5.09;100.00
80139;BME280;69467;59.842;17.604;2024-02-14T07:02:16;101128.41;;;-5.06;100.00
80139;BME280;69467;59.842;17.604;2024-02-14T07:04:41;101131.91;;;-5.05;100.00
80139;BME280;69467;59.842;17.604;2024-02-14T07:07:07;101137.94;;;-5.03;100.00
80139;BME280;69467;59.842;17.604;2024-02-14T07:09:33;101137.13;;;-5.04;100.00
80139;BME280;69467;59.842;17.604;2024-02-14T07:12:01;101140.19;;;-4.98;100.00
80139;BME280;69467;59.842;17.604;2024-02-14T07:14:26;101135.72;;;-5.08;100.00
80139;BME280;69467;59.842;17.604;2024-02-14T07:16:52;101146.78;;;-5.03;100.00
80139;BME280;69467;59.842;17.604;2024-02-14T07:19:17;101145.81;;;-5.02;100.00
80139;BME280;69467;59.842;17.604;2024-02-14T07:21:43;101147.09;;;-5.06;100.00
80139;BME280;69467;59.842;17.604;2024-02-14T07:24:09;101149.19;;;-4.99;100.00
80139;BME280;69467;59.842;17.604;2024-02-14T07:26:34;101155.50;;;-5.01;100.00
80139;BME280;69467;59.842;17.604;2024-02-14T07:29:00;101146.34;;;-4.98;100.00
80139;BME280;69467;59.842;17.604;2024-02-14T07:31:29;101159.56;;;-4.96;100.00
80139;BME280;69467;59.842;17.604;2024-02-14T07:34:00;101149.56;;;-4.94;100.00
80139;BME280;69467;59.842;17.604;2024-02-14T07:36:25;101150.81;;;-4.89;100.00
80139;BME280;69467;59.842;17.604;2024-02-14T07:38:51;101156.00;;;-4.87;100.00
80139;BME280;69467;59.842;17.604;2024-02-14T07:41:16;101147.66;;;-4.84;100.00
80139;BME280;69467;59.842;17.604;2024-02-14T07:43:41;101146.41;;;-4.80;100.00
80139;BME280;69467;59.842;17.604;2024-02-14T07:46:07;101144.09;;;-4.75;100.00
80139;BME280;69467;59.842;17.604;2024-02-14T07:48:33;101143.66;;;-4.70;100.00
80139;BME280;69467;59.842;17.604;2024-02-14T07:50:59;101156.41;;;-4.64;100.00
80139;BME280;69467;59.842;17.604;2024-02-14T07:53:25;101158.56;;;-4.67;100.00
80139;BME280;69467;59.842;17.604;2024-02-14T07:55:51;101164.00;;;-4.59;100.00
80139;BME280;69467;59.842;17.604;2024-02-14T07:58:17;101167.66;;;-4.60;100.00
80139;BME280;69467;59.842;17.604;2024-02-14T08:00:43;101161.31;;;-4.59;100.00
80139;BME280;69467;59.842;17.604;2024-02-14T08:03:08;101170.53;;;-4.54;100.00
80139;BME280;69467;59.842;17.604;2024-02-14T08:05:34;101175.06;;;-4.54;100.00
80139;BME280;69467;59.842;17.604;2024-02-14T08:07:59;101173.91;;;-4.51;100.00
80139;BME280;69467;59.842;17.604;2024-02-14T08:10:24;101174.44;;;-4.48;100.00
80139;BME280;69467;59.842;17.604;2024-02-14T08:12:50;101172.06;;;-4.51;100.00
80139;BME280;69467;59.842;17.604;2024-02-14T08:15:15;101181.16;;;-4.44;100.00
80139;BME280;69467;59.842;17.604;2024-02-14T08:17:41;101189.56;;;-4.39;100.00
80139;BME280;69467;59.842;17.604;2024-02-14T08:20:07;101187.59;;;-4.37;100.00
80139;BME280;69467;59.842;17.604;2024-02-14T08:22:32;101187.97;;;-4.31;100.00
80139;BME280;69467;59.842;17.604;2024-02-14T08:24:58;101185.66;;;-4.26;100.00
80139;BME280;69467;59.842;17.604;2024-02-14T08:27:23;101188.88;;;-4.23;100.00
80139;BME280;69467;59.842;17.604;2024-02-14T08:29:49;101182.25;;;-4.18;100.00
80139;BME280;69467;59.842;17.604;2024-02-14T08:32:14;101173.16;;;-4.26;100.00
80139;BME280;69467;59.842;17.604;2024-02-14T08:34:39;101189.75;;;-4.22;100.00
80139;BME280;69467;59.842;17.604;2024-02-14T08:37:05;101187.06;;;-4.22;100.00
80139;BME280;69467;59.842;17.604;2024-02-14T08:39:31;101193.63;;;-4.16;100.00
80139;BME280;69467;59.842;17.604;2024-02-14T08:41:57;101193.16;;;-4.12;100.00
80139;BME280;69467;59.842;17.604;2024-02-14T08:44:22;101201.88;;;-4.10;100.00
80139;BME280;69467;59.842;17.604;2024-02-14T08:46:47;101190.56;;;-4.03;100.00
80139;BME280;69467;59.842;17.604;2024-02-14T08:49:15;101201.81;;;-4.00;100.00
80139;BME280;69467;59.842;17.604;2024-02-14T08:51:41;101204.31;;;-3.98;100.00
80139;BME280;69467;59.842;17.604;2024-02-14T08:54:09;101200.25;;;-4.02;100.00
80139;BME280;69467;59.842;17.604;2024-02-14T08:56:34;101202.25;;;-4.05;100.00
80139;BME280;69467;59.842;17.604;2024-02-14T08:59:00;101206.53;;;-3.94;100.00
80139;BME280;69467;59.842;17.604;2024-02-14T09:01:30;101205.69;;;-3.94;100.00
80139;BME280;69467;59.842;17.604;2024-02-14T09:03:56;101209.94;;;-3.83;100.00
80139;BME280;69467;59.842;17.604;2024-02-14T09:06:22;101206.50;;;-3.76;100.00
80139;BME280;69467;59.842;17.604;2024-02-14T09:08:47;101208.19;;;-3.75;100.00
80139;BME280;69467;59.842;17.604;2024-02-14T09:11:13;101216.56;;;-3.69;100.00
80139;BME280;69467;59.842;17.604;2024-02-14T09:13:38;101209.59;;;-3.62;100.00
80139;BME280;69467;59.842;17.604;2024-02-14T09:16:07;101212.50;;;-3.56;100.00
80139;BME280;69467;59.842;17.604;2024-02-14T09:18:33;101219.28;;;-3.43;100.00
80139;BME280;69467;59.842;17.604;2024-02-14T09:20:58;101230.34;;;-3.38;100.00
80139;BME280;69467;59.842;17.604;2024-02-14T09:23:23;101234.72;;;-3.37;100.00
80139;BME280;69467;59.842;17.604;2024-02-14T09:25:49;101240.22;;;-3.38;100.00
80139;BME280;69467;59.842;17.604;2024-02-14T09:28:17;101244.94;;;-3.32;100.00
80139;BME280;69467;59.842;17.604;2024-02-14T09:30:43;101240.09;;;-3.29;100.00
80139;BME280;69467;59.842;17.604;2024-02-14T09:33:08;101246.53;;;-3.21;100.00
80139;BME280;69467;59.842;17.604;2024-02-14T09:35:34;101244.69;;;-3.21;100.00
80139;BME280;69467;59.842;17.604;2024-02-14T09:38:00;101251.25;;;-3.15;100.00
80139;BME280;69467;59.842;17.604;2024-02-14T09:40:26;101239.66;;;-3.24;100.00
80139;BME280;69467;59.842;17.604;2024-02-14T09:42:55;101249.03;;;-3.20;100.00
80139;BME280;69467;59.842;17.604;2024-02-14T09:45:26;101242.72;;;-3.11;100.00
80139;BME280;69467;59.842;17.604;2024-02-14T09:47:53;101233.88;;;-3.03;100.00
80139;BME280;69467;59.842;17.604;2024-02-14T09:50:20;101242.81;;;-2.94;100.00
80139;BME280;69467;59.842;17.604;2024-02-14T09:52:47;101252.06;;;-2.88;100.00
80139;BME280;69467;59.842;17.604;2024-02-14T09:55:15;101243.38;;;-2.82;100.00
80139;BME280;69467;59.842;17.604;2024-02-14T09:57:41;101248.09;;;-2.76;100.00
80139;BME280;69467;59.842;17.604;2024-02-14T10:00:11;101245.75;;;-2.71;100.00
80139;BME280;69467;59.842;17.604;2024-02-14T10:02:38;101251.34;;;-2.64;100.00
80139;BME280;69467;59.842;17.604;2024-02-14T10:05:03;101252.13;;;-2.72;100.00
80139;BME280;69467;59.842;17.604;2024-02-14T10:07:29;101251.13;;;-2.71;100.00
80139;BME280;69467;59.842;17.604;2024-02-14T10:09:54;101260.72;;;-2.60;100.00
80139;BME280;69467;59.842;17.604;2024-02-14T10:12:20;101260.22;;;-2.64;100.00
80139;BME280;69467;59.842;17.604;2024-02-14T10:14:45;101266.44;;;-2.55;100.00
80139;BME280;69467;59.842;17.604;2024-02-14T10:17:20;101260.75;;;-2.52;100.00
80139;BME280;69467;59.842;17.604;2024-02-14T10:19:59;101263.16;;;-2.40;100.00
80139;BME280;69467;59.842;17.604;2024-02-14T10:22:32;101254.09;;;-2.31;100.00
80139;BME280;69467;59.842;17.604;2024-02-14T10:24:57;101257.13;;;-2.26;100.00
80139;BME280;69467;59.842;17.604;2024-02-14T10:27:22;101257.81;;;-2.24;100.00
80139;BME280;69467;59.842;17.604;2024-02-14T10:29:48;101252.63;;;-2.25;100.00
80139;BME280;69467;59.842;17.604;2024-02-14T10:32:16;101262.50;;;-2.18;100.00
80139;BME280;69467;59.842;17.604;2024-02-14T10:34:43;101264.38;;;-2.18;100.00
80139;BME280;69467;59.842;17.604;2024-02-14T10:37:13;101268.56;;;-2.16;100.00
80139;BME280;69467;59.842;17.604;2024-02-14T10:39:41;101262.69;;;-2.19;100.00
80139;BME280;69467;59.842;17.604;2024-02-14T10:42:06;101260.84;;;-2.27;100.00
80139;BME280;69467;59.842;17.604;2024-02-14T10:44:32;101258.81;;;-2.25;100.00
80139;BME280;69467;59.842;17.604;2024-02-14T10:46:57;101258.81;;;-2.25;100.00
80139;BME280;69467;59.842;17.604;2024-02-14T10:49:27;101255.81;;;-2.22;100.00
80139;BME280;69467;59.842;17.604;2024-02-14T10:51:56;101252.78;;;-2.19;100.00
80139;BME280;69467;59.842;17.604;2024-02-14T10:54:25;101248.06;;;-2.33;100.00
80139;BME280;69467;59.842;17.604;2024-02-14T10:56:53;101259.53;;;-2.15;100.00
80139;BME280;69467;59.842;17.604;2024-02-14T10:59:21;101242.91;;;-2.10;100.00
80139;BME280;69467;59.842;17.604;2024-02-14T11:01:48;101252.13;;;-2.21;100.00
80139;BME280;69467;59.842;17.604;2024-02-14T11:04:14;101257.84;;;-2.16;100.00
80139;BME280;69467;59.842;17.604;2024-02-14T11:06:47;101257.84;;;-2.16;100.00
80139;BME280;69467;59.842;17.604;2024-02-14T11:09:13;101241.06;;;-2.09;100.00
80139;BME280;69467;59.842;17.604;2024-02-14T11:11:42;101254.50;;;-1.93;100.00
80139;BME280;69467;59.842;17.604;2024-02-14T11:14:08;101252.16;;;-2.04;100.00
80139;BME280;69467;59.842;17.604;2024-02-14T11:16:33;101265.41;;;-1.95;100.00
80139;BME280;69467;59.842;17.604;2024-02-14T11:21:46;101261.91;;;-1.70;100.00
80139;BME280;69467;59.842;17.604;2024-02-14T11:24:14;101257.03;;;-1.75;100.00
80139;BME280;69467;59.842;17.604;2024-02-14T11:29:14;101268.78;;;-1.59;100.00
80139;BME280;69467;59.842;17.604;2024-02-14T11:31:41;101266.28;;;-1.53;100.00
80139;BME280;69467;59.842;17.604;2024-02-14T11:34:06;101269.97;;;-1.46;100.00
80139;BME280;69467;59.842;17.604;2024-02-14T11:36:36;101266.59;;;-1.39;100.00
80139;BME280;69467;59.842;17.604;2024-02-14T11:39:03;101274.47;;;-1.46;100.00
80139;BME280;69467;59.842;17.604;2024-02-14T11:41:29;101276.34;;;-1.55;100.00
80139;BME280;69467;59.842;17.604;2024-02-14T11:43:54;101271.31;;;-1.58;100.00
80139;BME280;69467;59.842;17.604;2024-02-14T11:46:20;101282.38;;;-1.61;100.00
80139;BME280;69467;59.842;17.604;2024-02-14T11:48:45;101285.41;;;-1.56;100.00
80139;BME280;69467;59.842;17.604;2024-02-14T11:51:11;101272.97;;;-1.49;100.00
80139;BME280;69467;59.842;17.604;2024-02-14T11:53:36;101279.34;;;-1.50;100.00
80139;BME280;69467;59.842;17.604;2024-02-14T11:56:02;101291.78;;;-1.49;100.00
80139;BME280;69467;59.842;17.604;2024-02-14T11:58:27;101290.09;;;-1.41;100.00
80139;BME280;69467;59.842;17.604;2024-02-14T12:00:53;101283.38;;;-1.37;100.00
80139;BME280;69467;59.842;17.604;2024-02-14T12:03:19;101285.06;;;-1.36;100.00
80139;BME280;69467;59.842;17.604;2024-02-14T12:05:47;101272.78;;;-1.39;100.00
80139;BME280;69467;59.842;17.604;2024-02-14T12:08:13;101273.97;;;-1.33;100.00
80139;BME280;69467;59.842;17.604;2024-02-14T12:10:42;101276.31;;;-1.30;100.00
80139;BME280;69467;59.842;17.604;2024-02-14T12:13:11;101291.44;;;-1.29;100.00
80139;BME280;69467;59.842;17.604;2024-02-14T12:15:57;101291.44;;;-1.29;100.00
80139;BME280;69467;59.842;17.604;2024-02-14T12:18:23;101289.09;;;-1.32;100.00
80139;BME280;69467;59.842;17.604;2024-02-14T12:20:48;101295.81;;;-1.28;100.00
80139;BME280;69467;59.842;17.604;2024-02-14T12:23:16;101296.47;;;-1.26;100.00
80139;BME280;69467;59.842;17.604;2024-02-14T12:25:43;101287.75;;;-1.28;100.00
80139;BME280;69467;59.842;17.604;2024-02-14T12:28:08;101292.94;;;-1.26;100.00
80139;BME280;69467;59.842;17.604;2024-02-14T12:31:00;101290.28;;;-1.43;100.00